
Distance (Route):
Temperature : -18.4°C
Humidity : 7.6%
Pressure : 0hPa| Receiver | Frames | First received | Last received |
|---|---|---|---|
| LZ4TU-5 | 91 | 2026-09-05 17:37:06 | 2026-09-05 18:37:49 |
| Receiver | Date | Latitude | Longitude | Direction | Speed | Altitude | Climb | Temperature | Humidity | Pressure | Voltage | Killtimer | Uptime | BKT | XDATA |
|---|---|---|---|---|---|---|---|---|---|---|---|---|---|---|---|
| LZ4TU-5 | 2026-09-05 18:37:49 | 43.11642 | 20.59767 | 116° | 58km/h | 7526m | -17.0m/s | -18.4°C | 7.6% | 0hPa | 0V | 00:00:00 | 00:00:00 | 00:00:00 | |
| LZ4TU-5 | 2026-09-05 18:37:45 | 43.11668 | 20.59694 | 120° | 60km/h | 7590m | -17.8m/s | -19.0°C | 8.1% | 0hPa | 0V | 00:00:00 | 00:00:00 | 00:00:00 | |
| LZ4TU-5 | 2026-09-05 18:36:27 | 43.12237 | 20.58304 | 112° | 62km/h | 9018m | -19.3m/s | -29.4°C | 29.6% | 0hPa | 0V | 00:00:00 | 00:00:00 | 00:00:00 | |
| LZ4TU-5 | 2026-09-05 18:36:22 | 43.12264 | 20.58205 | 111° | 60km/h | 9117m | -18.5m/s | -30.2°C | 0% | 0hPa | 0V | 00:00:00 | 00:00:00 | 00:00:00 | |
| LZ4TU-5 | 2026-09-05 18:35:04 | 43.12785 | 20.56609 | 119° | 75km/h | 10678m | -22.0m/s | -43.4°C | 29.2% | 0hPa | 0V | 00:00:00 | 00:00:00 | 00:00:00 | |
| LZ4TU-5 | 2026-09-05 18:35:00 | 43.12822 | 20.56515 | 119° | 77km/h | 10768m | -22.0m/s | -44.1°C | 28.9% | 0hPa | 0V | 00:00:00 | 00:00:00 | 00:00:00 | |
| LZ4TU-5 | 2026-09-05 18:33:43 | 43.13588 | 20.54736 | 129° | 75km/h | 12511m | -23.5m/s | -56.7°C | 24.5% | 0hPa | 0V | 00:00:00 | 00:00:00 | 00:00:00 | |
| LZ4TU-5 | 2026-09-05 18:33:39 | 43.13634 | 20.54655 | 128° | 73km/h | 12606m | -23.5m/s | -56.9°C | 24.2% | 0hPa | 0V | 00:00:00 | 00:00:00 | 00:00:00 | |
| LZ4TU-5 | 2026-09-05 18:32:21 | 43.14311 | 20.52797 | 103° | 77km/h | 14570m | -26.5m/s | -63.7°C | 0.4% | 0hPa | 0V | 00:00:00 | 00:00:00 | 00:00:00 | |
| LZ4TU-5 | 2026-09-05 18:32:17 | 43.14326 | 20.52689 | 102° | 82km/h | 14679m | -26.4m/s | -61.4°C | 0.0% | 0hPa | 0V | 00:00:00 | 00:00:00 | 00:00:00 | |
| LZ4TU-5 | 2026-09-05 18:30:59 | 43.14380 | 20.51153 | 71° | 64km/h | 16906m | -28.5m/s | -61.0°C | 0.0% | 0hPa | 0V | 00:00:00 | 00:00:00 | 00:00:00 | |
| LZ4TU-5 | 2026-09-05 18:30:54 | 43.14346 | 20.51048 | 80° | 66km/h | 17040m | -29.7m/s | -59.3°C | 0.0% | 0hPa | 0V | 00:00:00 | 00:00:00 | 00:00:00 | |
| LZ4TU-5 | 2026-09-05 18:29:36 | 43.14486 | 20.49990 | 96° | 11km/h | 19576m | -36.5m/s | -57.5°C | 0.0% | 0hPa | 0V | 00:00:00 | 00:00:00 | 00:00:00 | |
| LZ4TU-5 | 2026-09-05 18:29:31 | 43.14480 | 20.49968 | 53° | 20km/h | 19766m | -38.0m/s | -55.4°C | 0.0% | 0hPa | 0V | 00:00:00 | 00:00:00 | 00:00:00 | |
| LZ4TU-5 | 2026-09-05 18:29:26 | 43.14451 | 20.49947 | 76° | 15km/h | 19942m | -34.9m/s | -56.1°C | 0.0% | 0hPa | 0V | 00:00:00 | 00:00:00 | 00:00:00 | |
| LZ4TU-5 | 2026-09-05 18:28:10 | 43.14524 | 20.49758 | 85° | 2km/h | 23235m | -51.9m/s | -51.9°C | 0.0% | 0hPa | 0V | 00:00:00 | 00:00:00 | 00:00:00 | |
| LZ4TU-5 | 2026-09-05 18:28:05 | 43.14521 | 20.49753 | 0° | 0km/h | 23493m | -50.7m/s | -52.0°C | 0.0% | 0hPa | 0V | 00:00:00 | 00:00:00 | 00:00:00 | |
| LZ4TU-5 | 2026-09-05 18:26:47 | 43.14582 | 20.49725 | 269° | 5km/h | 27869m | -60.8m/s | -47.6°C | 0.0% | 0hPa | 0V | 00:00:00 | 00:00:00 | 00:00:00 | |
| LZ4TU-5 | 2026-09-05 18:25:16 | 43.14634 | 20.50034 | 220° | 24km/h | 28645m | 7.8m/s | -45.9°C | 0.0% | 0hPa | 0V | 00:00:00 | 00:00:00 | 00:00:00 | |
| LZ4TU-5 | 2026-09-05 18:25:12 | 43.14646 | 20.50041 | 307° | 5km/h | 28619m | 9.1m/s | -45.9°C | 0.0% | 0hPa | 0V | 00:00:00 | 00:00:00 | 00:00:00 | |
| LZ4TU-5 | 2026-09-05 18:23:56 | 43.14614 | 20.50181 | 221° | 13km/h | 28151m | 4.8m/s | -49.6°C | 0.0% | 0hPa | 0V | 00:00:00 | 00:00:00 | 00:00:00 | |
| LZ4TU-5 | 2026-09-05 18:23:52 | 43.14624 | 20.50182 | 160° | 15km/h | 28122m | 9.0m/s | -49.8°C | 0.0% | 0hPa | 0V | 00:00:00 | 00:00:00 | 00:00:00 | |
| LZ4TU-5 | 2026-09-05 18:22:35 | 43.14881 | 20.50254 | 203° | 11km/h | 27561m | 9.4m/s | -49.8°C | 0.0% | 0hPa | 0V | 00:00:00 | 00:00:00 | 00:00:00 | |
| LZ4TU-5 | 2026-09-05 18:22:30 | 43.14890 | 20.50245 | 93° | 13km/h | 27524m | 10.7m/s | -49.7°C | 0.0% | 0hPa | 0V | 00:00:00 | 00:00:00 | 00:00:00 | |
| LZ4TU-5 | 2026-09-05 18:21:12 | 43.15066 | 20.50199 | 28° | 9km/h | 27006m | 5.2m/s | -50.1°C | 0.0% | 0hPa | 0V | 00:00:00 | 00:00:00 | 00:00:00 | |
| LZ4TU-5 | 2026-09-05 18:21:07 | 43.15053 | 20.50192 | 0° | 0km/h | 26975m | 8.6m/s | -50.0°C | 0.0% | 0hPa | 0V | 00:00:00 | 00:00:00 | 00:00:00 | |
| LZ4TU-5 | 2026-09-05 18:19:49 | 43.15158 | 20.50194 | 316° | 9km/h | 26435m | 11.0m/s | -50.6°C | 0.0% | 0hPa | 0V | 00:00:00 | 00:00:00 | 00:00:00 | |
| LZ4TU-5 | 2026-09-05 18:19:45 | 43.15164 | 20.50207 | 173° | 16km/h | 26405m | 7.1m/s | -50.9°C | 0.0% | 0hPa | 0V | 00:00:00 | 00:00:00 | 00:00:00 | |
| LZ4TU-5 | 2026-09-05 18:18:28 | 43.15416 | 20.50330 | 206° | 27km/h | 25831m | 9.3m/s | -49.4°C | 0.0% | 0hPa | 0V | 00:00:00 | 00:00:00 | 00:00:00 | |
| LZ4TU-5 | 2026-09-05 18:18:23 | 43.15446 | 20.50348 | 157° | 15km/h | 25796m | 5.7m/s | -49.4°C | 0.0% | 0hPa | 0V | 00:00:00 | 00:00:00 | 00:00:00 | |
| LZ4TU-5 | 2026-09-05 18:17:05 | 43.15256 | 20.50176 | 15° | 11km/h | 25284m | 6.8m/s | -50.8°C | 0.0% | 0hPa | 0V | 00:00:00 | 00:00:00 | 00:00:00 | |
| LZ4TU-5 | 2026-09-05 18:17:00 | 43.15235 | 20.50197 | 346° | 29km/h | 25248m | 7.0m/s | -50.8°C | 0.0% | 0hPa | 0V | 00:00:00 | 00:00:00 | 00:00:00 | |
| LZ4TU-5 | 2026-09-05 18:15:42 | 43.15226 | 20.50371 | 218° | 20km/h | 24697m | 13.2m/s | -52.7°C | 0.0% | 0hPa | 0V | 00:00:00 | 00:00:00 | 00:00:00 | |
| LZ4TU-5 | 2026-09-05 18:15:37 | 43.15246 | 20.50396 | 355° | 9km/h | 24663m | 7.8m/s | -53.0°C | 0.0% | 0hPa | 0V | 00:00:00 | 00:00:00 | 00:00:00 | |
| LZ4TU-5 | 2026-09-05 18:14:20 | 43.15248 | 20.50316 | 0° | 0km/h | 24094m | 7.4m/s | -52.8°C | 0.0% | 0hPa | 0V | 00:00:00 | 00:00:00 | 00:00:00 | |
| LZ4TU-5 | 2026-09-05 18:14:15 | 43.15243 | 20.50338 | 34° | 5km/h | 24058m | 5.7m/s | -53.0°C | 0.0% | 0hPa | 0V | 00:00:00 | 00:00:00 | 00:00:00 | |
| LZ4TU-5 | 2026-09-05 18:12:57 | 43.15340 | 20.50395 | 178° | 11km/h | 23529m | 8.0m/s | -52.6°C | 0.0% | 0hPa | 0V | 00:00:00 | 00:00:00 | 00:00:00 | |
| LZ4TU-5 | 2026-09-05 18:12:52 | 43.15339 | 20.50386 | 318° | 11km/h | 23500m | 8.0m/s | -52.3°C | 0.0% | 0hPa | 0V | 00:00:00 | 00:00:00 | 00:00:00 | |
| LZ4TU-5 | 2026-09-05 18:11:34 | 43.15226 | 20.50373 | 64° | 20km/h | 23033m | 0.9m/s | -53.2°C | 0.0% | 0hPa | 0V | 00:00:00 | 00:00:00 | 00:00:00 | |
| LZ4TU-5 | 2026-09-05 18:11:29 | 43.15217 | 20.50384 | 285° | 26km/h | 22999m | 8.6m/s | -53.4°C | 0.0% | 0hPa | 0V | 00:00:00 | 00:00:00 | 00:00:00 | |
| LZ4TU-5 | 2026-09-05 18:10:12 | 43.15438 | 20.50305 | 119° | 16km/h | 22466m | 6.5m/s | -55.0°C | 0.0% | 0hPa | 0V | 00:00:00 | 00:00:00 | 00:00:00 | |
| LZ4TU-5 | 2026-09-05 18:10:07 | 43.15445 | 20.50262 | 93° | 24km/h | 22431m | 8.0m/s | -55.2°C | 0.0% | 0hPa | 0V | 00:00:00 | 00:00:00 | 00:00:00 | |
| LZ4TU-5 | 2026-09-05 18:08:49 | 43.15622 | 20.50311 | 205° | 16km/h | 21900m | 5.2m/s | -55.1°C | 0.0% | 0hPa | 0V | 00:00:00 | 00:00:00 | 00:00:00 | |
| LZ4TU-5 | 2026-09-05 18:08:45 | 43.15634 | 20.50318 | 179° | 18km/h | 21876m | 6.0m/s | -55.0°C | 0.0% | 0hPa | 0V | 00:00:00 | 00:00:00 | 00:00:00 | |
| LZ4TU-5 | 2026-09-05 18:07:26 | 43.15857 | 20.49924 | 43° | 24km/h | 21356m | 7.1m/s | -56.0°C | 0.0% | 0hPa | 0V | 00:00:00 | 00:00:00 | 00:00:00 | |
| LZ4TU-5 | 2026-09-05 18:07:22 | 43.15851 | 20.49925 | 0° | 0km/h | 21327m | 3.7m/s | -55.9°C | 0.0% | 0hPa | 0V | 00:00:00 | 00:00:00 | 00:00:00 | |
| LZ4TU-5 | 2026-09-05 18:06:09 | 43.15703 | 20.49658 | 87° | 27km/h | 20822m | 9.7m/s | -56.1°C | 0.0% | 0hPa | 0V | 00:00:00 | 00:00:00 | 00:00:00 | |
| LZ4TU-5 | 2026-09-05 18:06:04 | 43.15706 | 20.49641 | 11° | 4km/h | 20787m | 6.5m/s | -56.2°C | 0.0% | 0hPa | 0V | 00:00:00 | 00:00:00 | 00:00:00 | |
| LZ4TU-5 | 2026-09-05 18:04:50 | 43.15732 | 20.49182 | 99° | 27km/h | 20276m | 4.6m/s | -57.9°C | 0.0% | 0hPa | 0V | 00:00:00 | 00:00:00 | 00:00:00 | |
| LZ4TU-5 | 2026-09-05 18:04:46 | 43.15731 | 20.49129 | 81° | 37km/h | 20248m | 7.4m/s | -57.8°C | 0.0% | 0hPa | 0V | 00:00:00 | 00:00:00 | 00:00:00 | |
| LZ4TU-5 | 2026-09-05 18:03:25 | 43.15566 | 20.48656 | 65° | 9km/h | 19725m | 8.9m/s | -56.9°C | 0.0% | 0hPa | 0V | 00:00:00 | 00:00:00 | 00:00:00 | |
| LZ4TU-5 | 2026-09-05 18:03:20 | 43.15554 | 20.48653 | 7° | 11km/h | 19693m | 6.6m/s | -57.3°C | 0.0% | 0hPa | 0V | 00:00:00 | 00:00:00 | 00:00:00 | |
| LZ4TU-5 | 2026-09-05 18:02:06 | 43.15713 | 20.48073 | 48° | 20km/h | 19190m | 9.0m/s | -59.5°C | 0.0% | 0hPa | 0V | 00:00:00 | 00:00:00 | 00:00:00 | |
| LZ4TU-5 | 2026-09-05 18:02:02 | 43.15719 | 20.48060 | 140° | 27km/h | 19161m | 11.1m/s | -59.6°C | 0.0% | 0hPa | 0V | 00:00:00 | 00:00:00 | 00:00:00 | |
| LZ4TU-5 | 2026-09-05 18:00:47 | 43.15965 | 20.47412 | 137° | 51km/h | 18641m | 7.2m/s | -58.5°C | 0.0% | 0hPa | 0V | 00:00:00 | 00:00:00 | 00:00:00 | |
| LZ4TU-5 | 2026-09-05 18:00:42 | 43.15992 | 20.47343 | 94° | 46km/h | 18608m | 6.1m/s | -58.4°C | 0.0% | 0hPa | 0V | 00:00:00 | 00:00:00 | 00:00:00 | |
| LZ4TU-5 | 2026-09-05 17:59:30 | 43.16204 | 20.46126 | 81° | 75km/h | 18069m | 7.8m/s | -58.8°C | 0.4% | 0hPa | 0V | 00:00:00 | 00:00:00 | 00:00:00 | |
| LZ4TU-5 | 2026-09-05 17:59:25 | 43.16185 | 20.46014 | 75° | 55km/h | 18034m | 8.2m/s | -58.6°C | 0.3% | 0hPa | 0V | 00:00:00 | 00:00:00 | 00:00:00 | |
| LZ4TU-5 | 2026-09-05 17:58:12 | 43.16061 | 20.44840 | 107° | 66km/h | 17570m | 12.6m/s | -60.3°C | 1.4% | 0hPa | 0V | 00:00:00 | 00:00:00 | 00:00:00 | |
| LZ4TU-5 | 2026-09-05 17:58:07 | 43.16095 | 20.44755 | 116° | 42km/h | 17530m | 8.1m/s | -60.2°C | 1.5% | 0hPa | 0V | 00:00:00 | 00:00:00 | 00:00:00 | |
| LZ4TU-5 | 2026-09-05 17:56:44 | 43.16094 | 20.43081 | 69° | 64km/h | 16945m | 6.0m/s | -59.1°C | 3.0% | 0hPa | 0V | 00:00:00 | 00:00:00 | 00:00:00 | |
| LZ4TU-5 | 2026-09-05 17:56:40 | 43.16072 | 20.42986 | 73° | 77km/h | 16917m | 8.6m/s | -59.1°C | 3.0% | 0hPa | 0V | 00:00:00 | 00:00:00 | 00:00:00 | |
| LZ4TU-5 | 2026-09-05 17:55:17 | 43.15994 | 20.41715 | 102° | 55km/h | 16365m | 5.7m/s | -62.0°C | 4.2% | 0hPa | 0V | 00:00:00 | 00:00:00 | 00:00:00 | |
| LZ4TU-5 | 2026-09-05 17:55:12 | 43.16002 | 20.41647 | 122° | 31km/h | 16328m | 8.0m/s | -61.8°C | 4.2% | 0hPa | 0V | 00:00:00 | 00:00:00 | 00:00:00 | |
| LZ4TU-5 | 2026-09-05 17:53:48 | 43.15949 | 20.40368 | 92° | 49km/h | 15756m | 7.4m/s | -61.6°C | 6.3% | 0hPa | 0V | 00:00:00 | 00:00:00 | 00:00:00 | |
| LZ4TU-5 | 2026-09-05 17:53:43 | 43.15945 | 20.40273 | 78° | 62km/h | 15725m | 9.6m/s | -61.7°C | 6.5% | 0hPa | 0V | 00:00:00 | 00:00:00 | 00:00:00 | |
| LZ4TU-5 | 2026-09-05 17:52:19 | 43.15993 | 20.38497 | 89° | 71km/h | 15165m | 7.2m/s | -60.8°C | 11.0% | 0hPa | 0V | 00:00:00 | 00:00:00 | 00:00:00 | |
| LZ4TU-5 | 2026-09-05 17:52:14 | 43.15995 | 20.38385 | 99° | 57km/h | 15134m | 7.6m/s | -60.6°C | 11.4% | 0hPa | 0V | 00:00:00 | 00:00:00 | 00:00:00 | |
| LZ4TU-5 | 2026-09-05 17:50:44 | 43.16183 | 20.36223 | 105° | 77km/h | 14509m | 7.8m/s | -64.3°C | 20.9% | 0hPa | 0V | 00:00:00 | 00:00:00 | 00:00:00 | |
| LZ4TU-5 | 2026-09-05 17:50:40 | 43.16195 | 20.36130 | 98° | 62km/h | 14481m | 8.3m/s | -65.1°C | 21.4% | 0hPa | 0V | 00:00:00 | 00:00:00 | 00:00:00 | |
| LZ4TU-5 | 2026-09-05 17:49:18 | 43.16716 | 20.34009 | 112° | 89km/h | 13882m | 10.3m/s | -64.3°C | 26.9% | 0hPa | 0V | 00:00:00 | 00:00:00 | 00:00:00 | |
| LZ4TU-5 | 2026-09-05 17:49:12 | 43.16754 | 20.33836 | 107° | 91km/h | 13847m | 5.8m/s | -64.1°C | 27.3% | 0hPa | 0V | 00:00:00 | 00:00:00 | 00:00:00 | |
| LZ4TU-5 | 2026-09-05 17:47:50 | 43.17623 | 20.31726 | 136° | 97km/h | 13212m | 5.4m/s | -61.1°C | 29.2% | 0hPa | 0V | 00:00:00 | 00:00:00 | 00:00:00 | |
| LZ4TU-5 | 2026-09-05 17:47:45 | 43.17664 | 20.31590 | 100° | 84km/h | 13168m | 7.0m/s | -61.0°C | 29.4% | 0hPa | 0V | 00:00:00 | 00:00:00 | 00:00:00 | |
| LZ4TU-5 | 2026-09-05 17:46:19 | 43.18213 | 20.29555 | 124° | 89km/h | 12539m | 6.6m/s | -57.6°C | 25.1% | 0hPa | 0V | 00:00:00 | 00:00:00 | 00:00:00 | |
| LZ4TU-5 | 2026-09-05 17:46:14 | 43.18234 | 20.29419 | 98° | 71km/h | 12508m | 2.7m/s | -57.3°C | 24.6% | 0hPa | 0V | 00:00:00 | 00:00:00 | 00:00:00 | |
| LZ4TU-5 | 2026-09-05 17:44:41 | 43.19003 | 20.27247 | 123° | 69km/h | 11890m | 7.6m/s | -52.5°C | 27.5% | 0hPa | 0V | 00:00:00 | 00:00:00 | 00:00:00 | |
| LZ4TU-5 | 2026-09-05 17:43:15 | 43.19777 | 20.25127 | 114° | 82km/h | 11313m | 8.7m/s | -50.1°C | 34.8% | 0hPa | 0V | 00:00:00 | 00:00:00 | 00:00:00 | |
| LZ4TU-5 | 2026-09-05 17:43:10 | 43.19814 | 20.24990 | 112° | 71km/h | 11280m | 7.6m/s | -49.8°C | 0% | 0hPa | 0V | 00:00:00 | 00:00:00 | 00:00:00 | |
| LZ4TU-5 | 2026-09-05 17:41:45 | 43.20556 | 20.23051 | 122° | 91km/h | 10745m | 4.8m/s | -44.8°C | 31.1% | 0hPa | 0V | 00:00:00 | 00:00:00 | 00:00:00 | |
| LZ4TU-5 | 2026-09-05 17:41:40 | 43.20603 | 20.22942 | 122° | 73km/h | 10717m | 8.3m/s | -44.6°C | 30.9% | 0hPa | 0V | 00:00:00 | 00:00:00 | 00:00:00 | |
| LZ4TU-5 | 2026-09-05 17:40:09 | 43.21474 | 20.20778 | 116° | 68km/h | 10168m | 5.1m/s | -40.0°C | 26.1% | 0hPa | 0V | 00:00:00 | 00:00:00 | 00:00:00 | |
| LZ4TU-5 | 2026-09-05 17:40:04 | 43.21497 | 20.20663 | 113° | 66km/h | 10142m | 8.0m/s | -39.8°C | 25.4% | 0hPa | 0V | 00:00:00 | 00:00:00 | 00:00:00 | |
| LZ4TU-5 | 2026-09-05 17:38:52 | 43.22115 | 20.19055 | 127° | 46km/h | 9669m | 7.0m/s | -35.7°C | 25.1% | 0hPa | 0V | 00:00:00 | 00:00:00 | 00:00:00 | |
| LZ4TU-5 | 2026-09-05 17:38:47 | 43.22124 | 20.18963 | 104° | 66km/h | 9632m | 8.3m/s | -35.4°C | 24.6% | 0hPa | 0V | 00:00:00 | 00:00:00 | 00:00:00 | |
| LZ4TU-5 | 2026-09-05 17:37:33 | 43.22598 | 20.17390 | 87° | 57km/h | 9148m | 5.7m/s | -31.3°C | 28.5% | 0hPa | 0V | 00:00:00 | 00:00:00 | 00:00:00 | |
| LZ4TU-5 | 2026-09-05 17:37:27 | 43.22638 | 20.17286 | 128° | 66km/h | 9112m | 4.4m/s | -30.9°C | 25.7% | 0hPa | 0V | 00:00:00 | 00:00:00 | 00:00:00 | |
| LZ4TU-5 | 2026-09-05 17:37:20 | 43.22649 | 20.17121 | 104° | 84km/h | 9058m | 7.8m/s | -30.5°C | 22.3% | 0hPa | 0V | 00:00:00 | 00:00:00 | 00:00:00 | |
| LZ4TU-5 | 2026-09-05 17:37:16 | 43.22702 | 20.17018 | 124° | 57km/h | 9026m | 5.8m/s | -30.3°C | 20.6% | 0hPa | 0V | 00:00:00 | 00:00:00 | 00:00:00 | |
| LZ4TU-5 | 2026-09-05 17:37:11 | 43.22707 | 20.16927 | 98° | 82km/h | 8997m | 6.3m/s | -30.1°C | 21.0% | 0hPa | 0V | 00:00:00 | 00:00:00 | 00:00:00 | |
| LZ4TU-5 | 2026-09-05 17:37:06 | 43.22751 | 20.16835 | 132° | 55km/h | 8969m | 4.9m/s | -29.9°C | 21.4% | 0hPa | 0V | 00:00:00 | 00:00:00 | 00:00:00 |